Terminal Aerodrome Forecast
Issued by NWS Shreveport, LA

Home | Current Version | Previous Version | Text Only | Print | Product List | Glossary On
Versions: 1 2 3 4 5 6 7 8 9 10 11 12 13 14 15 16 17
000
FTUS44 KSHV 270522
TAFMLU
TAF
KMLU 270522Z 2706/2806 18008KT P6SM SCT070
     FM270900 18007KT P6SM VCSH BKN025
     FM271800 22013G19KT P6SM VCSH BKN050
     FM280100 21004KT P6SM BKN050=

USA.gov is the U.S. government's official web portal to all federal, state and local government web resources and services.